Time;durP1;ratioP1;P1;durP2;ratioP2;P2;SDS_P1;SDS_P2;PMS_P1;PMS_P2;Temp;Humidity;BMP_temperature;BMP_pressure;BME280_temperature;BME280_humidity;BME280_pressure;Samples;Min_cycle;Max_cycle;Signal;HPM_P1;HPM_P2
2022/08/19 00:01:24;;;;;;;9.68;8.77;;;;;;;21.53;100.00;100239.47;4956883;28;20050;-57
2022/08/19 00:03:58;;;;;;;10.68;9.68;;;;;;;21.54;100.00;100246.50;4963057;28;20055;-58
2022/08/19 00:06:26;;;;;;;10.68;9.68;;;;;;;21.54;100.00;100243.81;4963780;28;20066;-57
2022/08/19 00:08:53;;;;;;;11.43;10.38;;;;;;;21.56;100.00;100247.13;4970446;28;20405;-57
2022/08/19 00:11:21;;;;;;;10.13;9.20;;;;;;;21.54;100.00;100254.53;4963890;28;20051;-58
2022/08/19 00:13:53;;;;;;;11.15;9.52;;;;;;;21.51;100.00;100254.03;4965882;28;20042;-54
2022/08/19 00:16:23;;;;;;;11.75;9.35;;;;;;;21.50;100.00;100263.91;4963769;28;20051;-58
2022/08/19 00:18:54;;;;;;;11.05;9.90;;;;;;;21.53;100.00;100263.56;4968404;28;20047;-57
2022/08/19 00:21:26;;;;;;;10.45;9.45;;;;;;;21.54;100.00;100283.97;4951676;28;20047;-55
2022/08/19 00:23:57;;;;;;;11.27;10.27;;;;;;;21.55;100.00;100274.94;4959177;28;20063;-56
2022/08/19 00:26:26;;;;;;;12.02;10.80;;;;;;;21.57;100.00;100266.72;4954499;28;20543;-58
2022/08/19 00:28:54;;;;;;;12.02;10.73;;;;;;;21.57;100.00;100261.38;4964292;28;20058;-57
2022/08/19 00:31:21;;;;;;;11.35;9.68;;;;;;;21.58;100.00;100255.84;4954035;28;20508;-57
2022/08/19 00:33:51;;;;;;;13.15;11.82;;;;;;;21.60;100.00;100258.34;4960473;28;20059;-54
2022/08/19 00:36:18;;;;;;;12.38;11.07;;;;;;;21.62;100.00;100256.34;4958671;28;20537;-55
2022/08/19 00:38:46;;;;;;;12.27;11.10;;;;;;;21.62;100.00;100256.34;4957585;28;20393;-56
2022/08/19 00:41:14;;;;;;;12.02;10.57;;;;;;;21.63;100.00;100250.00;4963016;28;20054;-57
2022/08/19 00:43:42;;;;;;;11.40;10.30;;;;;;;21.61;100.00;100244.78;4965779;28;20416;-58
2022/08/19 00:46:09;;;;;;;13.27;11.20;;;;;;;21.62;100.00;100246.47;4959033;28;20054;-58
2022/08/19 00:48:36;;;;;;;12.25;11.13;;;;;;;21.61;100.00;100244.78;4959146;28;20055;-58
2022/08/19 00:51:04;;;;;;;13.05;11.25;;;;;;;21.61;100.00;100241.28;4957672;28;20345;-59
2022/08/19 00:53:33;;;;;;;11.52;10.52;;;;;;;21.57;100.00;100234.56;4962823;28;20062;-59
2022/08/19 00:56:03;;;;;;;13.93;11.65;;;;;;;21.56;100.00;100239.09;4956186;28;20058;-59
2022/08/19 00:58:32;;;;;;;11.80;10.70;;;;;;;21.49;100.00;100244.31;4953315;28;20055;-59
2022/08/19 01:01:00;;;;;;;13.07;11.63;;;;;;;21.48;100.00;100248.00;4958729;28;20070;-56
2022/08/19 01:03:27;;;;;;;12.77;11.48;;;;;;;21.51;100.00;100254.03;4956252;28;20055;-58
2022/08/19 01:06:14;;;;;;;12.52;11.20;;;;;;;21.53;100.00;100239.47;4957887;28;20071;-59
2022/08/19 01:08:46;;;;;;;13.82;12.52;;;;;;;21.53;100.00;100239.47;4953246;28;20047;-60
2022/08/19 01:11:16;;;;;;;13.50;12.10;;;;;;;21.52;100.00;100243.13;4955875;28;20419;-58
2022/08/19 01:13:44;;;;;;;13.45;12.20;;;;;;;21.53;100.00;100244.81;4958817;28;20067;-58
2022/08/19 01:16:17;;;;;;;12.02;10.82;;;;;;;21.48;100.00;100258.72;4958441;28;20058;-57
2022/08/19 01:18:45;;;;;;;12.75;11.27;;;;;;;21.49;100.00;100270.28;4951379;28;20077;-59
2022/08/19 01:21:20;;;;;;;11.63;10.52;;;;;;;21.49;100.00;100259.56;4955511;28;20051;-59
2022/08/19 01:23:47;;;;;;;12.45;11.20;;;;;;;21.47;100.00;100256.19;4961224;28;20066;-56
2022/08/19 01:26:18;;;;;;;12.27;10.80;;;;;;;21.47;100.00;100266.91;4956120;28;20059;-58
2022/08/19 01:28:48;;;;;;;11.98;10.77;;;;;;;21.45;100.00;100277.81;4966294;28;20073;-59
2022/08/19 01:31:22;;;;;;;10.73;9.73;;;;;;;21.44;100.00;100277.97;4951040;28;20479;-58
2022/08/19 01:33:55;;;;;;;11.48;10.38;;;;;;;21.44;100.00;100273.47;4969399;28;20050;-59
2022/08/19 01:36:27;;;;;;;12.73;11.45;;;;;;;21.41;100.00;100276.47;4950227;28;20050;-59
2022/08/19 01:38:55;;;;;;;12.68;11.38;;;;;;;21.38;100.00;100270.59;4963038;28;20496;-54
2022/08/19 01:41:23;;;;;;;12.90;11.60;;;;;;;21.34;100.00;100266.59;4951938;28;20050;-59
2022/08/19 01:43:52;;;;;;;12.40;11.05;;;;;;;21.31;100.00;100272.28;4958799;28;20054;-55
2022/08/19 01:46:40;;;;;;;16.25;12.25;;;;;;;21.30;100.00;100268.75;4955721;28;20054;-61
2022/08/19 01:49:07;;;;;;;12.02;10.57;;;;;;;21.24;100.00;100270.25;4961178;28;20070;-54
2022/08/19 01:51:35;;;;;;;13.48;12.07;;;;;;;21.26;100.00;100264.75;4945445;28;20046;-58
2022/08/19 01:54:08;;;;;;;13.50;11.63;;;;;;;21.23;100.00;100255.19;4953142;28;20051;-57
2022/08/19 01:56:35;;;;;;;14.60;13.10;;;;;;;21.20;100.00;100257.38;4956983;28;20059;-59
2022/08/19 01:59:06;;;;;;;15.82;12.98;;;;;;;21.20;100.00;100252.00;4956011;28;20531;-57
2022/08/19 02:01:34;;;;;;;18.80;13.98;;;;;;;21.18;100.00;100238.81;4953062;28;20051;-58
2022/08/19 02:04:02;;;;;;;16.58;12.35;;;;;;;21.19;100.00;100232.44;4955836;28;20062;-58
2022/08/19 02:06:29;;;;;;;14.07;12.65;;;;;;;21.16;100.00;100216.72;4956987;28;20047;-57
2022/08/19 02:08:57;;;;;;;13.35;11.95;;;;;;;21.11;100.00;100202.16;4945815;28;20055;-58
2022/08/19 02:11:27;;;;;;;15.25;12.65;;;;;;;21.03;100.00;100203.03;4949536;28;20048;-58
2022/08/19 02:13:54;;;;;;;16.23;12.55;;;;;;;20.93;100.00;100211.19;4950708;28;20055;-58
2022/08/19 02:16:21;;;;;;;12.85;11.48;;;;;;;20.81;100.00;100198.34;4953742;28;20055;-60
2022/08/19 02:18:49;;;;;;;15.07;11.75;;;;;;;20.74;100.00;100190.13;4950584;28;20055;-57
2022/08/19 02:21:19;;;;;;;14.05;12.55;;;;;;;20.73;100.00;100167.06;4949165;28;20055;-59
2022/08/19 02:23:47;;;;;;;16.00;12.68;;;;;;;20.67;100.00;100152.53;4949445;28;20497;-59
2022/08/19 02:26:14;;;;;;;12.95;11.30;;;;;;;20.73;100.00;100143.84;4948596;28;20062;-59
2022/08/19 02:28:42;;;;;;;11.60;10.50;;;;;;;20.73;100.00;100135.81;4952194;28;20528;-58
2022/08/19 02:31:16;;;;;;;11.23;10.02;;;;;;;20.78;100.00;100139.81;4947977;28;20168;-57
2022/08/19 02:33:44;;;;;;;10.57;9.50;;;;;;;20.79;100.00;100149.50;4952399;28;20504;-60
2022/08/19 02:36:13;;;;;;;11.15;10.05;;;;;;;20.76;100.00;100152.50;4952893;28;20055;-57
2022/08/19 02:38:42;;;;;;;12.27;11.00;;;;;;;20.77;100.00;100167.59;4951991;28;20051;-58
2022/08/19 02:41:19;;;;;;;12.40;11.18;;;;;;;20.79;100.00;100171.75;4955876;28;20353;-57
2022/08/19 02:43:47;;;;;;;12.40;10.93;;;;;;;20.80;100.00;100170.72;4950691;28;20047;-60
2022/08/19 02:46:36;;;;;;;11.55;10.43;;;;;;;20.84;100.00;100171.25;4953497;28;20063;-60
2022/08/19 02:49:05;;;;;;;11.68;10.48;;;;;;;20.88;100.00;100169.91;4957063;28;20043;-58
2022/08/19 02:51:36;;;;;;;11.63;10.52;;;;;;;20.89;100.00;100168.91;4952407;28;20512;-59
2022/08/19 02:54:03;;;;;;;11.50;10.38;;;;;;;20.90;100.00;100174.09;4952942;28;20043;-54
2022/08/19 02:56:31;;;;;;;12.30;10.93;;;;;;;20.92;100.00;100177.44;4953349;28;20519;-57
2022/08/19 02:58:58;;;;;;;13.77;11.38;;;;;;;20.93;100.00;100171.06;4960572;28;20500;-56
2022/08/19 03:01:31;;;;;;;10.90;9.90;;;;;;;20.95;100.00;100170.91;4942982;28;20047;-58
2022/08/19 03:04:01;;;;;;;12.52;10.32;;;;;;;20.95;100.00;100179.78;4957296;28;20078;-57
2022/08/19 03:06:29;;;;;;;16.70;10.38;;;;;;;20.94;100.00;100179.97;4958579;28;20051;-55
2022/08/19 03:08:58;;;;;;;10.73;9.63;;;;;;;20.94;100.00;100177.28;4954107;28;20070;-56
2022/08/19 03:11:29;;;;;;;11.80;9.90;;;;;;;20.94;100.00;100178.09;4951559;28;20043;-53
2022/08/19 03:13:56;;;;;;;16.35;10.40;;;;;;;20.95;100.00;100184.28;4953457;28;20487;-55
2022/08/19 03:16:25;;;;;;;13.20;10.73;;;;;;;20.91;100.00;100174.94;4959463;28;20062;-58
2022/08/19 03:18:54;;;;;;;11.32;10.13;;;;;;;20.90;100.00;100173.25;4956060;28;20059;-58
2022/08/19 03:21:24;;;;;;;11.50;10.43;;;;;;;20.87;100.00;100161.03;4962797;28;20043;-57
2022/08/19 03:23:54;;;;;;;12.18;10.50;;;;;;;20.86;100.00;100159.38;4960190;28;20058;-56
2022/08/19 03:26:21;;;;;;;11.15;10.05;;;;;;;20.83;100.00;100154.34;4948834;28;20047;-58
2022/08/19 03:28:49;;;;;;;10.90;9.73;;;;;;;20.80;100.00;100148.50;4961512;28;20161;-62
2022/08/19 03:31:25;;;;;;;12.70;9.88;;;;;;;20.74;100.00;100153.53;4956499;28;20051;-58
2022/08/19 03:34:14;;;;;;;11.32;9.32;;;;;;;20.73;100.00;100157.22;4960067;28;20059;-59
2022/08/19 03:36:42;;;;;;;11.73;10.52;;;;;;;20.71;100.00;100153.88;4952848;28;20436;-55
2022/08/19 03:39:10;;;;;;;10.95;9.85;;;;;;;20.70;100.00;100152.19;4955594;28;20068;-59
2022/08/19 03:41:40;;;;;;;10.90;9.80;;;;;;;20.69;100.00;100155.88;4951904;28;20055;-59
2022/08/19 03:44:13;;;;;;;12.57;10.85;;;;;;;20.70;100.00;100152.19;4954147;28;20233;-55
2022/08/19 03:46:45;;;;;;;11.68;10.57;;;;;;;20.70;100.00;100154.84;4961094;28;20055;-59
2022/08/19 03:49:13;;;;;;;12.05;10.85;;;;;;;20.71;100.00;100159.22;4959397;28;20138;-58
2022/08/19 03:51:41;;;;;;;13.02;11.73;;;;;;;20.69;100.00;100160.38;4954173;28;20448;-57
2022/08/19 03:54:10;;;;;;;13.50;11.20;;;;;;;20.67;100.00;100163.25;4958395;28;20524;-56
2022/08/19 03:56:39;;;;;;;11.18;10.05;;;;;;;20.67;100.00;100168.59;4957116;28;20059;-59
2022/08/19 03:59:10;;;;;;;14.30;11.40;;;;;;;20.68;100.00;100169.41;4961813;28;20067;-58
2022/08/19 04:01:37;;;;;;;11.55;10.45;;;;;;;20.68;100.00;100148.84;4955697;28;20143;-60
2022/08/19 04:04:05;;;;;;;11.73;10.63;;;;;;;20.70;100.00;100154.84;4956947;28;20403;-55
2022/08/19 04:06:35;;;;;;;13.10;11.82;;;;;;;20.69;100.00;100150.50;4955780;28;20083;-52
2022/08/19 04:09:08;;;;;;;11.02;9.93;;;;;;;20.68;100.00;100148.84;4949440;28;20070;-58
2022/08/19 04:11:41;;;;;;;10.40;9.35;;;;;;;20.70;100.00;100154.03;4952278;28;20535;-60
2022/08/19 04:14:16;;;;;;;;;;;;;;;20.74;100.00;100155.38;4957448;28;20051;-57
2022/08/19 04:16:44;;;;;;;10.77;9.68;;;;;;;20.73;100.00;100169.75;4956408;28;20209;-60
2022/08/19 04:19:12;;;;;;;10.05;9.10;;;;;;;20.72;100.00;100171.59;4960324;28;20055;-58
2022/08/19 04:21:40;;;;;;;11.45;10.35;;;;;;;20.72;100.00;100174.25;4959964;28;20051;-60
2022/08/19 04:24:12;;;;;;;10.85;9.85;;;;;;;20.71;100.00;100167.25;4958854;28;20047;-59
2022/08/19 04:26:39;;;;;;;12.00;10.13;;;;;;;20.71;100.00;100169.94;4949703;28;20064;-59
2022/08/19 04:29:13;;;;;;;11.23;10.13;;;;;;;20.75;100.00;100175.75;4959042;28;20055;-59
2022/08/19 04:31:41;;;;;;;11.18;10.20;;;;;;;20.76;100.00;100179.25;4956030;28;20058;-60
2022/08/19 04:34:11;;;;;;;14.85;10.32;;;;;;;20.79;100.00;100171.75;4954622;28;20061;-57
2022/08/19 04:36:40;;;;;;;11.98;10.80;;;;;;;20.82;100.00;100165.25;4949589;28;20059;-57
2022/08/19 04:39:10;;;;;;;13.38;12.02;;;;;;;20.85;100.00;100175.59;4952674;28;20055;-59
2022/08/19 04:44:23;;;;;;;14.13;11.63;;;;;;;20.86;100.00;100172.75;4951561;28;20051;-57
2022/08/19 04:46:51;;;;;;;13.10;10.77;;;;;;;20.90;100.00;100170.59;4950980;28;20132;-59
2022/08/19 04:49:21;;;;;;;12.30;11.13;;;;;;;20.93;100.00;100179.09;4958096;28;20065;-60
2022/08/19 04:51:51;;;;;;;14.52;10.60;;;;;;;20.97;100.00;100175.06;4953569;28;20059;-58
2022/08/19 04:54:22;;;;;;;13.45;11.65;;;;;;;21.01;100.00;100170.22;4960107;28;20058;-57
2022/08/19 04:57:06;;;;;;;11.63;10.45;;;;;;;21.03;100.00;100175.41;4958924;28;20065;-55
2022/08/19 04:59:34;;;;;;;11.57;10.15;;;;;;;21.08;100.00;100170.41;4951807;28;20070;-56
2022/08/19 05:02:01;;;;;;;12.25;10.35;;;;;;;21.14;100.00;100167.88;4953738;28;20065;-59
2022/08/19 05:04:31;;;;;;;12.23;11.02;;;;;;;21.22;100.00;100164.34;4954361;28;20054;-56
2022/08/19 05:07:00;;;;;;;11.30;9.93;;;;;;;21.27;100.00;100158.50;4965867;28;20134;-58
2022/08/19 05:09:28;;;;;;;10.65;9.70;;;;;;;21.33;100.00;100166.69;4946899;28;20047;-57
2022/08/19 05:12:15;;;;;;;12.60;10.48;;;;;;;21.43;100.00;100163.81;4951369;28;20153;-53
2022/08/19 05:14:45;;;;;;;11.05;9.93;;;;;;;21.54;100.00;100159.94;4955070;28;20055;-57
2022/08/19 05:17:13;;;;;;;12.57;11.27;;;;;;;21.59;100.00;100158.41;4954086;28;20065;-56
2022/08/19 05:22:46;;;;;;;12.43;10.13;;;;;;;21.76;100.00;100153.84;4960645;28;20142;-58
2022/08/19 05:25:18;;;;;;;15.00;11.02;;;;;;;21.91;100.00;100153.94;4961631;28;20510;-58
2022/08/19 05:27:46;;;;;;;11.57;10.50;;;;;;;22.02;100.00;100144.63;4959572;28;20070;-58
2022/08/19 05:30:14;;;;;;;12.30;10.95;;;;;;;22.14;100.00;100146.78;4953255;28;20059;-58
2022/08/19 05:32:41;;;;;;;10.18;9.18;;;;;;;22.17;100.00;100145.59;4957675;28;20059;-57
2022/08/19 05:35:09;;;;;;;10.73;9.40;;;;;;;22.22;100.00;100136.00;4952379;28;20063;-58
2022/08/19 05:37:36;;;;;;;12.23;9.57;;;;;;;22.30;100.00;100134.28;4952585;28;20059;-57
2022/08/19 05:40:04;;;;;;;11.82;10.35;;;;;;;22.37;99.67;100136.06;4953926;28;20157;-56
2022/08/19 05:42:31;;;;;;;13.18;10.77;;;;;;;22.47;99.52;100130.50;4962702;28;20051;-57
2022/08/19 05:44:58;;;;;;;11.75;8.90;;;;;;;22.52;98.72;100138.81;4948538;28;20051;-55
2022/08/19 05:47:25;;;;;;;15.32;9.25;;;;;;;22.54;98.61;100152.06;4952469;28;20047;-56
2022/08/19 05:49:52;;;;;;;11.30;10.07;;;;;;;22.58;98.66;100159.56;4960780;28;20058;-58
2022/08/19 05:52:19;;;;;;;13.10;9.18;;;;;;;22.59;97.88;100166.59;4965342;28;20057;-56
2022/08/19 05:54:54;;;;;;;20.52;10.18;;;;;;;22.65;98.16;100155.16;4962091;28;20047;-55
2022/08/19 05:57:22;;;;;;;10.65;9.57;;;;;;;22.66;97.40;100153.31;4963943;28;20050;-55
2022/08/19 05:59:51;;;;;;;12.60;10.00;;;;;;;22.70;97.35;100146.56;4962473;28;20062;-56
2022/08/19 06:02:25;;;;;;;10.43;9.32;;;;;;;22.78;97.00;100148.31;4959599;28;20061;-56
2022/08/19 06:04:52;;;;;;;11.75;10.52;;;;;;;22.84;96.96;100155.66;4964022;28;20343;-59
2022/08/19 06:07:19;;;;;;;10.90;9.82;;;;;;;22.85;97.18;100160.00;4962348;28;20062;-57
2022/08/19 06:09:46;;;;;;;12.15;9.60;;;;;;;22.90;96.75;100165.69;4951357;28;20075;-56
2022/08/19 06:12:32;;;;;;;15.27;10.50;;;;;;;22.93;96.05;100163.50;4953097;28;20538;-58
2022/08/19 06:15:03;;;;;;;10.80;9.70;;;;;;;22.97;95.91;100169.34;4952198;28;20070;-53
2022/08/19 06:17:30;;;;;;;15.77;10.27;;;;;;;23.01;95.72;100186.75;4945061;28;20047;-58
2022/08/19 06:19:58;;;;;;;11.68;9.55;;;;;;;23.06;95.40;100180.84;4952967;28;20055;-60
2022/08/19 06:22:27;;;;;;;11.27;10.18;;;;;;;23.06;95.35;100168.25;4956327;28;20531;-52
2022/08/19 06:24:55;;;;;;;12.02;10.40;;;;;;;23.17;95.30;100166.94;4955839;28;20047;-57
2022/08/19 06:27:22;;;;;;;14.27;10.18;;;;;;;23.18;94.64;100176.66;4949300;28;20054;-57
2022/08/19 06:29:50;;;;;;;11.27;10.18;;;;;;;23.27;94.06;100175.56;4963435;28;20154;-55
2022/08/19 06:32:18;;;;;;;12.48;10.48;;;;;;;23.23;93.97;100169.72;4967988;28;20074;-57
2022/08/19 06:34:46;;;;;;;12.70;10.60;;;;;;;23.25;93.43;100167.72;4959250;28;20055;-54
2022/08/19 06:37:13;;;;;;;11.25;10.15;;;;;;;23.33;92.87;100172.16;4959524;28;20063;-57
2022/08/19 06:39:42;;;;;;;11.80;10.60;;;;;;;23.41;93.00;100166.69;4961269;28;20051;-53
2022/08/19 06:42:13;;;;;;;12.52;10.77;;;;;;;23.47;92.38;100160.59;4954842;28;20047;-58
2022/08/19 06:44:41;;;;;;;12.20;11.10;;;;;;;23.44;92.75;100170.88;4960844;28;20624;-58
2022/08/19 06:47:12;;;;;;;12.75;11.50;;;;;;;23.39;93.09;100179.47;4957472;28;20374;-55
2022/08/19 06:49:49;;;;;;;14.13;10.77;;;;;;;23.39;93.45;100190.22;4960644;28;20133;-57
2022/08/19 06:52:17;;;;;;;12.43;10.35;;;;;;;23.43;93.14;100204.13;4965421;28;20065;-51
2022/08/19 06:54:44;;;;;;;12.20;10.98;;;;;;;23.45;93.41;100205.59;4967738;28;20077;-56
2022/08/19 06:57:23;;;;;;;12.52;11.15;;;;;;;23.52;92.39;100196.81;4965695;28;20062;-49
2022/08/19 06:59:51;;;;;;;13.50;12.30;;;;;;;23.45;92.86;100200.22;4956773;28;20186;-55
2022/08/19 07:02:20;;;;;;;13.43;11.57;;;;;;;23.53;93.45;100202.00;4960195;28;20052;-55
2022/08/19 07:04:47;;;;;;;14.52;11.90;;;;;;;23.60;93.19;100216.38;4950240;28;20539;-54
2022/08/19 07:07:20;;;;;;;14.43;11.68;;;;;;;23.71;92.82;100215.94;4961246;28;20365;-53
2022/08/19 07:09:49;;;;;;;14.05;11.75;;;;;;;23.77;92.26;100218.88;4953203;28;20640;-51
2022/08/19 07:12:24;;;;;;;11.77;10.73;;;;;;;23.76;91.75;100223.44;4964693;28;20047;-55
2022/08/19 07:14:53;;;;;;;17.02;11.95;;;;;;;23.69;91.39;100226.03;4964253;28;20056;-52
2022/08/19 07:17:20;;;;;;;12.60;11.40;;;;;;;23.64;91.46;100224.88;4964910;28;20051;-58
2022/08/19 07:19:47;;;;;;;18.95;13.35;;;;;;;23.65;92.77;100215.84;4964970;28;20065;-55
2022/08/19 07:22:15;;;;;;;15.02;11.82;;;;;;;23.68;92.17;100210.91;4966188;28;20411;-58
2022/08/19 07:24:43;;;;;;;12.35;10.93;;;;;;;23.82;91.83;100200.34;4947708;28;20070;-53
2022/08/19 07:27:18;;;;;;;13.68;12.32;;;;;;;23.88;90.82;100216.56;4960655;28;20047;-48
2022/08/19 07:29:52;;;;;;;18.15;12.07;;;;;;;23.87;91.95;100214.09;4963300;28;20047;-54
2022/08/19 07:32:26;;;;;;;12.68;11.38;;;;;;;23.91;90.27;100220.72;4967460;28;20066;-55
2022/08/19 07:34:54;;;;;;;15.35;11.73;;;;;;;23.89;90.45;100214.72;4968834;28;20057;-53
2022/08/19 07:37:26;;;;;;;13.32;11.93;;;;;;;23.96;90.46;100219.16;4959813;28;20051;-54
2022/08/19 07:39:59;;;;;;;12.70;11.32;;;;;;;24.05;90.72;100230.66;4962393;28;20117;-55
2022/08/19 07:42:29;;;;;;;18.60;12.02;;;;;;;24.02;90.39;100241.78;4963727;28;20051;-53
2022/08/19 07:44:58;;;;;;;13.60;11.52;;;;;;;23.97;90.54;100241.50;4969621;28;20051;-53
2022/08/19 07:47:25;;;;;;;15.55;12.30;;;;;;;23.98;90.26;100238.63;4971814;28;20059;-55
2022/08/19 07:50:13;;;;;;;13.73;12.13;;;;;;;23.90;90.89;100240.56;4958004;28;20054;-50
2022/08/19 07:52:40;;;;;;;13.27;11.98;;;;;;;23.88;90.70;100243.47;4966159;28;20535;-53
2022/08/19 07:55:09;;;;;;;16.48;14.23;;;;;;;23.91;90.33;100242.22;4966569;28;20101;-58
2022/08/19 07:57:57;;;;;;;13.82;11.18;;;;;;;23.87;90.99;100252.53;4944403;28;20062;-57
2022/08/19 08:00:24;;;;;;;16.67;12.18;;;;;;;23.95;90.37;100246.22;4961602;28;20435;-50
2022/08/19 08:02:54;;;;;;;14.27;11.90;;;;;;;23.99;91.24;100250.22;4964616;28;20480;-52
2022/08/19 08:10:59;;;;;;;14.23;12.82;;;;;;;24.02;90.54;100259.78;4962252;28;20050;-52
2022/08/19 08:13:27;;;;;;;16.70;13.88;;;;;;;24.02;90.08;100260.59;4964534;28;20082;-58
2022/08/19 08:15:56;;;;;;;15.77;12.60;;;;;;;23.95;90.73;100260.50;4967092;28;20051;-54
2022/08/19 08:18:24;;;;;;;17.67;14.43;;;;;;;23.97;91.12;100281.84;4961702;28;20070;-57
2022/08/19 08:20:57;;;;;;;14.95;13.40;;;;;;;23.89;91.91;100274.69;4969801;28;20062;-54
2022/08/19 08:23:25;;;;;;;13.98;12.60;;;;;;;23.99;91.44;100271.72;4970343;28;20066;-56
2022/08/19 08:25:55;;;;;;;15.00;13.52;;;;;;;24.07;91.31;100286.94;4956279;28;20102;-54
2022/08/19 08:28:24;;;;;;;15.40;13.70;;;;;;;24.00;90.97;100284.13;4963677;28;20508;-53
2022/08/19 08:30:57;;;;;;;18.10;13.80;;;;;;;24.09;90.49;100277.66;4969643;28;20054;-53
2022/08/19 08:33:26;;;;;;;14.88;13.50;;;;;;;24.17;89.77;100285.59;4963481;28;20074;-50
2022/08/19 08:36:02;;;;;;;14.95;12.30;;;;;;;24.19;89.49;100283.59;4966736;28;20055;-47
2022/08/19 08:38:31;;;;;;;16.88;15.07;;;;;;;24.28;89.77;100281.63;4964860;28;20061;-51
2022/08/19 08:41:19;;;;;;;15.95;14.18;;;;;;;24.37;89.11;100285.91;4962343;28;20051;-53
2022/08/19 08:43:50;;;;;;;14.98;13.45;;;;;;;24.67;88.36;100285.81;4966046;28;20063;-49
2022/08/19 08:46:21;;;;;;;15.73;14.13;;;;;;;24.87;85.85;100291.44;4965971;28;20519;-52
2022/08/19 08:49:05;;;;;;;15.90;14.30;;;;;;;24.99;85.78;100290.75;4971126;28;20055;-57
2022/08/19 08:51:40;;;;;;;17.98;16.13;;;;;;;24.94;83.67;100286.94;4966561;28;20058;-53
2022/08/19 08:54:15;;;;;;;16.33;13.70;;;;;;;24.95;84.33;100294.00;4966893;28;20063;-54
2022/08/19 08:56:43;;;;;;;16.88;15.20;;;;;;;24.75;85.08;100291.09;4956533;28;20508;-57
2022/08/19 08:59:19;;;;;;;16.40;14.80;;;;;;;24.65;85.60;100288.72;4954077;28;20063;-53
2022/08/19 09:01:47;;;;;;;15.65;14.00;;;;;;;24.49;85.87;100291.63;4960291;28;20094;-50
2022/08/19 09:04:15;;;;;;;18.02;16.02;;;;;;;24.46;87.63;100294.72;4956094;28;20067;-52
2022/08/19 09:07:17;;;;;;;15.25;13.40;;;;;;;24.52;87.17;100307.41;4965886;28;20067;-53
2022/08/19 09:10:10;;;;;;;18.58;15.07;;;;;;;24.34;87.70;100297.00;4951157;28;20050;-56
2022/08/19 09:12:58;;;;;;;16.48;14.88;;;;;;;24.33;88.26;100295.34;4956866;28;20088;-53
2022/08/19 09:15:32;;;;;;;17.25;15.52;;;;;;;24.49;87.77;100289.75;4951023;28;20093;-50
2022/08/19 09:18:03;;;;;;;17.52;15.82;;;;;;;24.43;87.92;100289.69;4975840;28;20074;-52
2022/08/19 09:20:33;;;;;;;18.52;14.38;;;;;;;24.49;87.52;100284.38;4969034;28;20062;-57
2022/08/19 09:23:00;;;;;;;15.68;14.18;;;;;;;24.66;87.35;100279.59;4966423;28;20496;-55
2022/08/19 09:25:27;;;;;;;17.65;15.70;;;;;;;24.44;88.75;100277.91;4965678;28;20057;-57
2022/08/19 09:27:57;;;;;;;17.30;15.52;;;;;;;24.74;87.48;100279.50;4965308;28;20127;-53
2022/08/19 09:30:31;;;;;;;16.35;14.93;;;;;;;25.07;85.76;100270.91;4965318;28;20055;-54
2022/08/19 09:32:59;;;;;;;19.38;15.85;;;;;;;24.90;85.42;100274.88;4970390;28;20066;-56
2022/08/19 09:35:28;;;;;;;17.05;15.18;;;;;;;24.96;85.45;100280.34;4962489;28;20051;-53
2022/08/19 09:37:56;;;;;;;14.68;13.25;;;;;;;25.07;84.45;100284.38;4966882;28;20066;-48
2022/08/19 09:40:28;;;;;;;17.20;15.55;;;;;;;25.09;83.67;100282.38;4958393;28;20530;-55
2022/08/19 09:43:02;;;;;;;16.52;14.70;;;;;;;25.16;84.29;100277.84;4961428;28;20055;-54
2022/08/19 09:45:36;;;;;;;17.67;15.23;;;;;;;25.34;84.10;100271.16;4951544;28;20077;-56
2022/08/19 09:48:03;;;;;;;14.95;13.27;;;;;;;25.75;81.93;100273.94;4947450;28;20516;-54
2022/08/19 09:50:35;;;;;;;15.55;14.05;;;;;;;25.91;79.74;100270.13;4946872;28;20063;-51
2022/08/19 09:53:02;;;;;;;14.68;13.13;;;;;;;25.92;78.37;100263.72;4945916;28;20141;-51
2022/08/19 09:55:32;;;;;;;15.25;13.52;;;;;;;25.69;79.36;100270.19;4949082;28;20059;-54
2022/08/19 09:58:01;;;;;;;16.70;12.65;;;;;;;25.48;80.46;100272.91;4941699;28;20501;-51
2022/08/19 10:00:29;;;;;;;14.18;12.73;;;;;;;25.25;80.47;100278.53;4947627;28;20131;-53
2022/08/19 10:02:56;;;;;;;14.27;12.88;;;;;;;25.13;82.49;100272.03;4953600;28;20070;-51
2022/08/19 10:08:09;;;;;;;14.65;13.15;;;;;;;25.22;81.90;100276.25;4952557;28;20058;-54
2022/08/19 10:10:43;;;;;;;23.63;13.80;;;;;;;25.29;81.90;100277.13;4950963;28;20244;-53
2022/08/19 10:13:15;;;;;;;13.38;12.25;;;;;;;25.30;80.84;100272.56;4960079;28;20062;-49
2022/08/19 10:15:42;;;;;;;15.20;13.75;;;;;;;25.15;81.33;100276.19;4952513;28;20055;-53
2022/08/19 10:18:17;;;;;;;14.10;12.65;;;;;;;24.90;83.28;100274.88;4943533;28;20051;-54
2022/08/19 10:20:46;;;;;;;16.65;13.75;;;;;;;24.84;82.91;100279.19;4953511;28;20069;-51
2022/08/19 10:23:20;;;;;;;15.07;13.25;;;;;;;24.74;84.02;100275.97;4958354;28;20059;-48
2022/08/19 10:25:48;;;;;;;18.13;13.90;;;;;;;24.78;84.35;100273.75;4949743;28;20050;-53
2022/08/19 10:28:16;;;;;;;14.60;13.18;;;;;;;24.80;83.88;100258.22;4953283;28;20051;-51
2022/08/19 10:30:46;;;;;;;15.13;13.07;;;;;;;24.68;85.17;100268.66;4954744;28;20058;-61
2022/08/19 10:33:14;;;;;;;15.48;13.23;;;;;;;24.49;85.50;100267.41;4960640;28;20412;-58
2022/08/19 10:36:04;;;;;;;14.52;13.07;;;;;;;24.39;86.37;100262.31;4947564;28;20135;-53
2022/08/19 10:38:31;;;;;;;14.00;12.65;;;;;;;24.37;86.78;100256.31;4949255;28;20055;-54
2022/08/19 10:41:16;;;;;;;15.27;12.98;;;;;;;24.51;86.83;100249.22;4956444;28;20146;-46
2022/08/19 10:43:44;;;;;;;14.30;12.57;;;;;;;24.69;86.62;100246.94;4953048;28;20043;-54
2022/08/19 10:46:14;;;;;;;12.77;11.50;;;;;;;24.89;85.62;100247.13;4961416;28;20043;-56
2022/08/19 10:48:43;;;;;;;13.93;12.30;;;;;;;24.83;85.69;100250.59;4963077;28;20415;-54
2022/08/19 10:53:58;;;;;;;12.77;11.57;;;;;;;24.53;86.34;100260.63;4953610;28;20065;-50
2022/08/19 10:59:13;;;;;;;13.88;12.45;;;;;;;24.37;87.29;100260.88;4958997;28;20606;-47
2022/08/19 11:01:43;;;;;;;16.13;12.68;;;;;;;24.41;87.41;100265.69;4950825;28;20058;-51
2022/08/19 11:04:10;;;;;;;15.48;12.60;;;;;;;24.45;87.42;100263.41;4954151;28;20063;-51
2022/08/19 11:06:38;;;;;;;14.35;12.95;;;;;;;24.43;86.96;100263.63;4970767;28;20057;-49
2022/08/19 11:09:05;;;;;;;15.05;13.50;;;;;;;24.37;86.97;100258.19;4955331;28;20054;-54
2022/08/19 11:11:35;;;;;;;14.95;12.98;;;;;;;24.29;87.78;100275.22;4952823;28;20066;-50
2022/08/19 11:14:06;;;;;;;15.57;13.43;;;;;;;24.18;88.26;100273.84;4947681;28;20056;-55
2022/08/19 11:16:33;;;;;;;17.85;13.82;;;;;;;24.02;89.77;100262.47;4964714;28;20063;-51
2022/08/19 11:19:01;;;;;;;14.27;12.75;;;;;;;23.92;89.94;100276.19;4952533;28;20061;-53
2022/08/19 11:21:34;;;;;;;15.30;13.80;;;;;;;23.80;90.58;100281.19;4957684;28;20051;-53
2022/08/19 11:24:05;;;;;;;13.52;12.23;;;;;;;23.72;91.42;100279.41;4955563;28;20053;-53
2022/08/19 11:26:33;;;;;;;14.02;11.65;;;;;;;23.75;91.33;100283.59;4943821;28;20055;-50
2022/08/19 11:29:01;;;;;;;13.52;12.30;;;;;;;23.85;90.91;100286.00;4957160;28;20047;-52
2022/08/19 11:31:31;;;;;;;13.13;11.77;;;;;;;23.90;91.02;100278.22;4947898;28;20047;-54
2022/08/19 11:34:01;;;;;;;13.32;12.07;;;;;;;23.99;90.49;100279.78;4950271;28;20440;-54
2022/08/19 11:36:29;;;;;;;17.85;12.70;;;;;;;23.82;91.76;100278.28;4951252;28;20051;-55
2022/08/19 11:38:56;;;;;;;13.88;12.55;;;;;;;23.98;90.79;100284.31;4954673;28;20393;-52
2022/08/19 11:41:24;;;;;;;14.65;12.18;;;;;;;24.07;89.58;100289.63;4958222;28;20046;-51